sensor_id;sensor_type;location;lat;lon;timestamp;P1;durP1;ratioP1;P2;durP2;ratioP2
22677;SDS011;26259;50.214;18.620;2022-07-21T00:01:09;21.30;;;13.67;;
22677;SDS011;26259;50.214;18.620;2022-07-21T00:03:35;23.17;;;15.73;;
22677;SDS011;26259;50.214;18.620;2022-07-21T00:06:01;20.73;;;15.43;;
22677;SDS011;26259;50.214;18.620;2022-07-21T00:08:27;21.97;;;14.73;;
22677;SDS011;26259;50.214;18.620;2022-07-21T00:10:53;26.53;;;15.30;;
22677;SDS011;26259;50.214;18.620;2022-07-21T00:13:19;23.50;;;16.07;;
22677;SDS011;26259;50.214;18.620;2022-07-21T00:15:44;24.47;;;16.03;;
22677;SDS011;26259;50.214;18.620;2022-07-21T00:18:11;22.37;;;16.03;;
22677;SDS011;26259;50.214;18.620;2022-07-21T00:20:37;20.37;;;14.03;;
22677;SDS011;26259;50.214;18.620;2022-07-21T00:23:02;17.57;;;13.83;;
22677;SDS011;26259;50.214;18.620;2022-07-21T00:25:28;19.83;;;14.20;;
22677;SDS011;26259;50.214;18.620;2022-07-21T00:27:54;19.27;;;14.43;;
22677;SDS011;26259;50.214;18.620;2022-07-21T00:30:20;19.97;;;14.10;;
22677;SDS011;26259;50.214;18.620;2022-07-21T00:32:45;21.30;;;13.70;;
22677;SDS011;26259;50.214;18.620;2022-07-21T00:35:11;19.03;;;14.13;;
22677;SDS011;26259;50.214;18.620;2022-07-21T00:37:38;22.17;;;14.03;;
22677;SDS011;26259;50.214;18.620;2022-07-21T00:40:04;20.87;;;13.47;;
22677;SDS011;26259;50.214;18.620;2022-07-21T00:42:32;23.27;;;14.27;;
22677;SDS011;26259;50.214;18.620;2022-07-21T00:44:58;20.60;;;13.47;;
22677;SDS011;26259;50.214;18.620;2022-07-21T00:47:25;16.00;;;13.73;;
22677;SDS011;26259;50.214;18.620;2022-07-21T00:49:52;16.83;;;13.50;;
22677;SDS011;26259;50.214;18.620;2022-07-21T00:52:18;18.43;;;13.03;;
22677;SDS011;26259;50.214;18.620;2022-07-21T00:54:44;20.93;;;13.90;;
22677;SDS011;26259;50.214;18.620;2022-07-21T00:57:11;18.60;;;13.27;;
22677;SDS011;26259;50.214;18.620;2022-07-21T00:59:37;16.97;;;12.70;;
22677;SDS011;26259;50.214;18.620;2022-07-21T01:02:03;18.03;;;13.00;;
22677;SDS011;26259;50.214;18.620;2022-07-21T01:04:29;19.43;;;13.63;;
22677;SDS011;26259;50.214;18.620;2022-07-21T01:06:55;17.37;;;13.43;;
22677;SDS011;26259;50.214;18.620;2022-07-21T01:09:22;17.37;;;12.60;;
22677;SDS011;26259;50.214;18.620;2022-07-21T01:11:48;19.50;;;13.03;;
22677;SDS011;26259;50.214;18.620;2022-07-21T01:14:14;17.33;;;13.47;;
22677;SDS011;26259;50.214;18.620;2022-07-21T01:16:41;16.07;;;12.50;;
22677;SDS011;26259;50.214;18.620;2022-07-21T01:19:08;21.87;;;12.90;;
22677;SDS011;26259;50.214;18.620;2022-07-21T01:21:36;20.57;;;13.80;;
22677;SDS011;26259;50.214;18.620;2022-07-21T01:24:04;17.07;;;13.33;;
22677;SDS011;26259;50.214;18.620;2022-07-21T01:26:38;20.87;;;13.20;;
22677;SDS011;26259;50.214;18.620;2022-07-21T01:29:08;21.70;;;12.90;;
22677;SDS011;26259;50.214;18.620;2022-07-21T01:31:35;18.20;;;13.20;;
22677;SDS011;26259;50.214;18.620;2022-07-21T01:34:01;16.37;;;13.13;;
22677;SDS011;26259;50.214;18.620;2022-07-21T01:36:27;16.83;;;12.93;;
22677;SDS011;26259;50.214;18.620;2022-07-21T01:38:53;16.37;;;12.10;;
22677;SDS011;26259;50.214;18.620;2022-07-21T01:41:37;15.60;;;11.57;;
22677;SDS011;26259;50.214;18.620;2022-07-21T01:44:05;14.47;;;11.20;;
22677;SDS011;26259;50.214;18.620;2022-07-21T01:46:34;15.17;;;10.90;;
22677;SDS011;26259;50.214;18.620;2022-07-21T01:49:01;23.63;;;11.93;;
22677;SDS011;26259;50.214;18.620;2022-07-21T01:51:27;17.00;;;11.20;;
22677;SDS011;26259;50.214;18.620;2022-07-21T01:53:53;14.17;;;12.07;;
22677;SDS011;26259;50.214;18.620;2022-07-21T01:56:22;17.43;;;11.63;;
22677;SDS011;26259;50.214;18.620;2022-07-21T01:58:50;14.43;;;10.97;;
22677;SDS011;26259;50.214;18.620;2022-07-21T02:01:19;13.53;;;9.67;;
22677;SDS011;26259;50.214;18.620;2022-07-21T02:03:47;11.47;;;9.50;;
22677;SDS011;26259;50.214;18.620;2022-07-21T02:06:13;13.97;;;9.73;;
22677;SDS011;26259;50.214;18.620;2022-07-21T02:08:39;12.47;;;9.20;;
22677;SDS011;26259;50.214;18.620;2022-07-21T02:11:07;15.07;;;10.37;;
22677;SDS011;26259;50.214;18.620;2022-07-21T02:13:34;15.40;;;9.67;;
22677;SDS011;26259;50.214;18.620;2022-07-21T02:15:59;11.60;;;9.80;;
22677;SDS011;26259;50.214;18.620;2022-07-21T02:18:25;14.67;;;9.53;;
22677;SDS011;26259;50.214;18.620;2022-07-21T02:20:51;15.50;;;9.53;;
22677;SDS011;26259;50.214;18.620;2022-07-21T02:23:18;13.63;;;9.83;;
22677;SDS011;26259;50.214;18.620;2022-07-21T02:25:44;16.93;;;10.07;;
22677;SDS011;26259;50.214;18.620;2022-07-21T02:28:10;12.07;;;8.77;;
22677;SDS011;26259;50.214;18.620;2022-07-21T02:30:36;14.43;;;9.00;;
22677;SDS011;26259;50.214;18.620;2022-07-21T02:33:02;15.17;;;9.50;;
22677;SDS011;26259;50.214;18.620;2022-07-21T02:35:28;13.77;;;10.20;;
22677;SDS011;26259;50.214;18.620;2022-07-21T02:37:54;18.97;;;10.93;;
22677;SDS011;26259;50.214;18.620;2022-07-21T02:40:20;11.90;;;9.50;;
22677;SDS011;26259;50.214;18.620;2022-07-21T02:42:46;19.20;;;11.57;;
22677;SDS011;26259;50.214;18.620;2022-07-21T02:45:11;18.97;;;12.47;;
22677;SDS011;26259;50.214;18.620;2022-07-21T02:47:47;21.53;;;11.57;;
22677;SDS011;26259;50.214;18.620;2022-07-21T02:50:16;16.27;;;11.53;;
22677;SDS011;26259;50.214;18.620;2022-07-21T02:52:42;14.20;;;10.03;;
22677;SDS011;26259;50.214;18.620;2022-07-21T02:55:08;15.63;;;10.40;;
22677;SDS011;26259;50.214;18.620;2022-07-21T02:57:34;13.63;;;10.47;;
22677;SDS011;26259;50.214;18.620;2022-07-21T02:59:59;14.27;;;10.50;;
22677;SDS011;26259;50.214;18.620;2022-07-21T03:02:25;13.33;;;11.40;;
22677;SDS011;26259;50.214;18.620;2022-07-21T03:04:51;18.57;;;10.67;;
22677;SDS011;26259;50.214;18.620;2022-07-21T03:07:16;11.27;;;9.93;;
22677;SDS011;26259;50.214;18.620;2022-07-21T03:09:42;14.83;;;10.50;;
22677;SDS011;26259;50.214;18.620;2022-07-21T03:12:08;14.53;;;10.60;;
22677;SDS011;26259;50.214;18.620;2022-07-21T03:14:33;12.97;;;10.43;;
22677;SDS011;26259;50.214;18.620;2022-07-21T03:16:59;13.80;;;11.27;;
22677;SDS011;26259;50.214;18.620;2022-07-21T03:19:27;18.30;;;11.50;;
22677;SDS011;26259;50.214;18.620;2022-07-21T03:21:52;15.87;;;11.43;;
22677;SDS011;26259;50.214;18.620;2022-07-21T03:24:18;15.87;;;11.43;;
22677;SDS011;26259;50.214;18.620;2022-07-21T03:26:44;15.00;;;11.10;;
22677;SDS011;26259;50.214;18.620;2022-07-21T03:29:09;14.57;;;11.43;;
22677;SDS011;26259;50.214;18.620;2022-07-21T03:31:35;12.23;;;10.57;;
22677;SDS011;26259;50.214;18.620;2022-07-21T03:34:00;13.77;;;10.57;;
22677;SDS011;26259;50.214;18.620;2022-07-21T03:36:26;20.13;;;11.83;;
22677;SDS011;26259;50.214;18.620;2022-07-21T03:38:52;20.43;;;11.33;;
22677;SDS011;26259;50.214;18.620;2022-07-21T03:41:17;21.37;;;11.53;;
22677;SDS011;26259;50.214;18.620;2022-07-21T03:43:43;16.03;;;10.50;;
22677;SDS011;26259;50.214;18.620;2022-07-21T03:46:09;15.80;;;11.30;;
22677;SDS011;26259;50.214;18.620;2022-07-21T03:48:34;19.17;;;11.67;;
22677;SDS011;26259;50.214;18.620;2022-07-21T03:51:00;18.40;;;11.37;;
22677;SDS011;26259;50.214;18.620;2022-07-21T03:53:25;16.20;;;11.83;;
22677;SDS011;26259;50.214;18.620;2022-07-21T03:55:51;18.00;;;11.50;;
22677;SDS011;26259;50.214;18.620;2022-07-21T03:58:16;15.13;;;11.03;;
22677;SDS011;26259;50.214;18.620;2022-07-21T04:00:43;15.73;;;10.93;;
22677;SDS011;26259;50.214;18.620;2022-07-21T04:03:10;15.43;;;10.37;;
22677;SDS011;26259;50.214;18.620;2022-07-21T04:05:36;14.50;;;10.33;;
22677;SDS011;26259;50.214;18.620;2022-07-21T04:08:04;16.50;;;9.63;;
22677;SDS011;26259;50.214;18.620;2022-07-21T04:10:32;12.63;;;10.07;;
22677;SDS011;26259;50.214;18.620;2022-07-21T04:12:59;10.23;;;8.87;;
22677;SDS011;26259;50.214;18.620;2022-07-21T04:15:26;13.43;;;9.67;;
22677;SDS011;26259;50.214;18.620;2022-07-21T04:17:53;10.40;;;9.10;;
22677;SDS011;26259;50.214;18.620;2022-07-21T04:20:19;11.73;;;8.37;;
22677;SDS011;26259;50.214;18.620;2022-07-21T04:22:45;11.37;;;8.37;;
22677;SDS011;26259;50.214;18.620;2022-07-21T04:25:12;12.03;;;7.83;;
22677;SDS011;26259;50.214;18.620;2022-07-21T04:27:38;13.90;;;8.00;;
22677;SDS011;26259;50.214;18.620;2022-07-21T04:30:05;9.50;;;7.40;;
22677;SDS011;26259;50.214;18.620;2022-07-21T04:32:32;10.37;;;7.37;;
22677;SDS011;26259;50.214;18.620;2022-07-21T04:34:57;8.63;;;7.10;;
22677;SDS011;26259;50.214;18.620;2022-07-21T04:37:23;8.63;;;7.67;;
22677;SDS011;26259;50.214;18.620;2022-07-21T04:39:49;12.90;;;6.83;;
22677;SDS011;26259;50.214;18.620;2022-07-21T04:42:14;12.00;;;7.43;;
22677;SDS011;26259;50.214;18.620;2022-07-21T04:44:40;8.57;;;6.35;;
22677;SDS011;26259;50.214;18.620;2022-07-21T04:47:06;12.50;;;6.85;;
22677;SDS011;26259;50.214;18.620;2022-07-21T04:49:31;8.68;;;6.53;;
22677;SDS011;26259;50.214;18.620;2022-07-21T04:51:57;10.80;;;6.93;;
22677;SDS011;26259;50.214;18.620;2022-07-21T04:54:22;10.13;;;6.68;;
22677;SDS011;26259;50.214;18.620;2022-07-21T04:56:48;11.00;;;6.60;;
22677;SDS011;26259;50.214;18.620;2022-07-21T04:59:14;9.63;;;6.45;;
22677;SDS011;26259;50.214;18.620;2022-07-21T05:01:39;11.07;;;6.72;;
22677;SDS011;26259;50.214;18.620;2022-07-21T05:04:05;10.65;;;7.20;;
22677;SDS011;26259;50.214;18.620;2022-07-21T05:06:31;12.80;;;7.38;;
22677;SDS011;26259;50.214;18.620;2022-07-21T05:08:57;15.85;;;7.25;;
22677;SDS011;26259;50.214;18.620;2022-07-21T05:11:23;15.67;;;7.80;;
22677;SDS011;26259;50.214;18.620;2022-07-21T05:13:49;15.17;;;8.30;;
22677;SDS011;26259;50.214;18.620;2022-07-21T05:16:15;12.40;;;7.87;;
22677;SDS011;26259;50.214;18.620;2022-07-21T05:18:41;14.50;;;7.67;;
22677;SDS011;26259;50.214;18.620;2022-07-21T05:21:07;13.37;;;8.07;;
22677;SDS011;26259;50.214;18.620;2022-07-21T05:23:33;15.30;;;7.77;;
22677;SDS011;26259;50.214;18.620;2022-07-21T05:25:58;14.40;;;8.13;;
22677;SDS011;26259;50.214;18.620;2022-07-21T05:28:24;17.47;;;7.73;;
22677;SDS011;26259;50.214;18.620;2022-07-21T05:30:51;18.97;;;7.43;;
22677;SDS011;26259;50.214;18.620;2022-07-21T05:33:17;13.50;;;7.83;;
22677;SDS011;26259;50.214;18.620;2022-07-21T05:35:42;16.60;;;8.50;;
22677;SDS011;26259;50.214;18.620;2022-07-21T05:38:08;15.37;;;8.33;;
22677;SDS011;26259;50.214;18.620;2022-07-21T05:40:33;23.20;;;7.93;;
22677;SDS011;26259;50.214;18.620;2022-07-21T05:42:59;18.63;;;8.57;;
22677;SDS011;26259;50.214;18.620;2022-07-21T05:45:25;17.50;;;8.27;;
22677;SDS011;26259;50.214;18.620;2022-07-21T05:47:50;18.33;;;8.20;;
22677;SDS011;26259;50.214;18.620;2022-07-21T05:50:16;14.87;;;7.83;;
22677;SDS011;26259;50.214;18.620;2022-07-21T05:52:41;19.07;;;7.60;;
22677;SDS011;26259;50.214;18.620;2022-07-21T05:55:07;12.83;;;6.90;;
22677;SDS011;26259;50.214;18.620;2022-07-21T05:57:33;20.33;;;7.00;;
22677;SDS011;26259;50.214;18.620;2022-07-21T05:59:59;16.00;;;6.67;;
22677;SDS011;26259;50.214;18.620;2022-07-21T06:02:25;20.17;;;7.23;;
22677;SDS011;26259;50.214;18.620;2022-07-21T06:04:54;17.50;;;6.97;;
22677;SDS011;26259;50.214;18.620;2022-07-21T06:07:20;18.80;;;7.20;;
22677;SDS011;26259;50.214;18.620;2022-07-21T06:09:45;12.23;;;6.20;;
22677;SDS011;26259;50.214;18.620;2022-07-21T06:12:11;15.77;;;6.80;;
22677;SDS011;26259;50.214;18.620;2022-07-21T06:14:37;13.87;;;6.60;;
22677;SDS011;26259;50.214;18.620;2022-07-21T06:17:02;13.98;;;6.32;;
22677;SDS011;26259;50.214;18.620;2022-07-21T06:19:28;13.50;;;6.40;;
22677;SDS011;26259;50.214;18.620;2022-07-21T06:21:54;15.93;;;6.60;;
22677;SDS011;26259;50.214;18.620;2022-07-21T06:24:19;19.15;;;7.93;;
22677;SDS011;26259;50.214;18.620;2022-07-21T06:26:47;15.60;;;6.63;;
22677;SDS011;26259;50.214;18.620;2022-07-21T06:29:13;11.48;;;6.63;;
22677;SDS011;26259;50.214;18.620;2022-07-21T06:31:38;13.35;;;6.10;;
22677;SDS011;26259;50.214;18.620;2022-07-21T06:34:04;11.25;;;6.10;;
22677;SDS011;26259;50.214;18.620;2022-07-21T06:36:30;8.07;;;6.15;;
22677;SDS011;26259;50.214;18.620;2022-07-21T06:38:56;14.23;;;6.38;;
22677;SDS011;26259;50.214;18.620;2022-07-21T06:41:21;9.52;;;5.78;;
22677;SDS011;26259;50.214;18.620;2022-07-21T06:43:47;18.02;;;6.38;;
22677;SDS011;26259;50.214;18.620;2022-07-21T06:46:12;7.70;;;4.90;;
22677;SDS011;26259;50.214;18.620;2022-07-21T06:48:38;12.10;;;5.80;;
22677;SDS011;26259;50.214;18.620;2022-07-21T06:51:03;7.18;;;5.97;;
22677;SDS011;26259;50.214;18.620;2022-07-21T06:53:29;13.70;;;6.10;;
22677;SDS011;26259;50.214;18.620;2022-07-21T06:55:55;9.00;;;5.25;;
22677;SDS011;26259;50.214;18.620;2022-07-21T06:58:21;11.23;;;5.45;;
22677;SDS011;26259;50.214;18.620;2022-07-21T07:00:49;8.38;;;5.55;;
22677;SDS011;26259;50.214;18.620;2022-07-21T07:03:15;9.57;;;5.65;;
22677;SDS011;26259;50.214;18.620;2022-07-21T07:05:42;13.23;;;6.05;;
22677;SDS011;26259;50.214;18.620;2022-07-21T07:08:08;15.57;;;5.60;;
22677;SDS011;26259;50.214;18.620;2022-07-21T07:10:34;8.25;;;4.93;;
22677;SDS011;26259;50.214;18.620;2022-07-21T07:13:00;14.13;;;5.78;;
22677;SDS011;26259;50.214;18.620;2022-07-21T07:15:27;10.57;;;5.53;;
22677;SDS011;26259;50.214;18.620;2022-07-21T07:17:53;9.90;;;6.07;;
22677;SDS011;26259;50.214;18.620;2022-07-21T07:20:19;12.63;;;5.40;;
22677;SDS011;26259;50.214;18.620;2022-07-21T07:22:45;7.80;;;4.75;;
22677;SDS011;26259;50.214;18.620;2022-07-21T07:25:10;12.88;;;6.20;;
22677;SDS011;26259;50.214;18.620;2022-07-21T07:27:36;8.38;;;4.97;;
22677;SDS011;26259;50.214;18.620;2022-07-21T07:30:02;16.13;;;5.78;;
22677;SDS011;26259;50.214;18.620;2022-07-21T07:32:29;13.32;;;5.32;;
22677;SDS011;26259;50.214;18.620;2022-07-21T07:34:54;12.18;;;5.75;;
22677;SDS011;26259;50.214;18.620;2022-07-21T07:37:20;10.80;;;5.38;;
22677;SDS011;26259;50.214;18.620;2022-07-21T07:39:46;6.45;;;5.00;;
22677;SDS011;26259;50.214;18.620;2022-07-21T07:42:11;11.65;;;6.80;;
22677;SDS011;26259;50.214;18.620;2022-07-21T07:44:37;16.67;;;6.10;;
22677;SDS011;26259;50.214;18.620;2022-07-21T07:47:03;8.80;;;5.45;;
22677;SDS011;26259;50.214;18.620;2022-07-21T07:49:29;12.55;;;5.22;;
22677;SDS011;26259;50.214;18.620;2022-07-21T07:51:55;12.40;;;5.47;;
22677;SDS011;26259;50.214;18.620;2022-07-21T07:54:21;14.20;;;5.43;;
22677;SDS011;26259;50.214;18.620;2022-07-21T07:56:47;13.98;;;5.60;;
22677;SDS011;26259;50.214;18.620;2022-07-21T07:59:12;15.68;;;5.30;;
22677;SDS011;26259;50.214;18.620;2022-07-21T08:01:38;21.13;;;5.20;;
22677;SDS011;26259;50.214;18.620;2022-07-21T08:04:04;14.27;;;4.97;;
22677;SDS011;26259;50.214;18.620;2022-07-21T08:06:29;10.48;;;5.30;;
22677;SDS011;26259;50.214;18.620;2022-07-21T08:08:55;11.10;;;5.20;;
22677;SDS011;26259;50.214;18.620;2022-07-21T08:11:21;8.27;;;4.88;;
22677;SDS011;26259;50.214;18.620;2022-07-21T08:13:46;17.08;;;4.88;;
22677;SDS011;26259;50.214;18.620;2022-07-21T08:16:12;9.70;;;5.28;;
22677;SDS011;26259;50.214;18.620;2022-07-21T08:18:40;18.13;;;5.50;;
22677;SDS011;26259;50.214;18.620;2022-07-21T08:21:06;8.13;;;4.38;;
22677;SDS011;26259;50.214;18.620;2022-07-21T08:23:31;7.07;;;4.53;;
22677;SDS011;26259;50.214;18.620;2022-07-21T08:25:57;16.88;;;5.40;;
22677;SDS011;26259;50.214;18.620;2022-07-21T08:28:22;7.95;;;4.45;;
22677;SDS011;26259;50.214;18.620;2022-07-21T08:30:48;19.13;;;4.90;;
22677;SDS011;26259;50.214;18.620;2022-07-21T08:33:14;11.20;;;4.65;;
22677;SDS011;26259;50.214;18.620;2022-07-21T08:35:39;12.38;;;4.70;;
22677;SDS011;26259;50.214;18.620;2022-07-21T08:38:06;9.98;;;4.55;;
22677;SDS011;26259;50.214;18.620;2022-07-21T08:40:35;6.60;;;4.90;;
22677;SDS011;26259;50.214;18.620;2022-07-21T08:43:03;8.15;;;5.18;;
22677;SDS011;26259;50.214;18.620;2022-07-21T08:45:29;11.65;;;4.78;;
22677;SDS011;26259;50.214;18.620;2022-07-21T08:47:56;10.18;;;5.03;;
22677;SDS011;26259;50.214;18.620;2022-07-21T08:50:24;11.73;;;5.15;;
22677;SDS011;26259;50.214;18.620;2022-07-21T08:52:51;18.08;;;5.75;;
22677;SDS011;26259;50.214;18.620;2022-07-21T08:55:17;9.50;;;5.70;;
22677;SDS011;26259;50.214;18.620;2022-07-21T08:57:43;12.10;;;5.30;;
22677;SDS011;26259;50.214;18.620;2022-07-21T09:00:09;18.50;;;5.78;;
22677;SDS011;26259;50.214;18.620;2022-07-21T09:02:36;12.40;;;4.75;;
22677;SDS011;26259;50.214;18.620;2022-07-21T09:05:03;11.07;;;4.82;;
22677;SDS011;26259;50.214;18.620;2022-07-21T09:10:27;11.95;;;4.50;;
22677;SDS011;26259;50.214;18.620;2022-07-21T09:12:58;13.70;;;4.80;;
22677;SDS011;26259;50.214;18.620;2022-07-21T09:15:29;10.52;;;4.22;;
22677;SDS011;26259;50.214;18.620;2022-07-21T09:18:12;7.15;;;4.15;;
22677;SDS011;26259;50.214;18.620;2022-07-21T09:20:47;5.97;;;3.60;;
22677;SDS011;26259;50.214;18.620;2022-07-21T09:23:14;9.45;;;4.03;;
22677;SDS011;26259;50.214;18.620;2022-07-21T09:25:42;10.13;;;3.60;;
22677;SDS011;26259;50.214;18.620;2022-07-21T09:28:10;5.88;;;3.78;;
22677;SDS011;26259;50.214;18.620;2022-07-21T09:30:50;6.25;;;4.82;;
22677;SDS011;26259;50.214;18.620;2022-07-21T09:35:59;4.22;;;3.60;;
22677;SDS011;26259;50.214;18.620;2022-07-21T09:41:16;13.18;;;3.72;;
22677;SDS011;26259;50.214;18.620;2022-07-21T09:46:15;9.80;;;3.90;;
22677;SDS011;26259;50.214;18.620;2022-07-21T09:48:47;9.30;;;4.22;;
22677;SDS011;26259;50.214;18.620;2022-07-21T09:51:32;11.02;;;3.80;;
22677;SDS011;26259;50.214;18.620;2022-07-21T09:54:03;10.93;;;4.03;;
22677;SDS011;26259;50.214;18.620;2022-07-21T09:56:36;6.30;;;3.90;;
22677;SDS011;26259;50.214;18.620;2022-07-21T09:59:03;8.60;;;4.05;;
22677;SDS011;26259;50.214;18.620;2022-07-21T10:01:31;9.02;;;4.38;;
22677;SDS011;26259;50.214;18.620;2022-07-21T10:03:57;9.70;;;3.95;;
22677;SDS011;26259;50.214;18.620;2022-07-21T10:06:33;8.18;;;4.38;;
22677;SDS011;26259;50.214;18.620;2022-07-21T10:09:02;6.32;;;4.18;;
22677;SDS011;26259;50.214;18.620;2022-07-21T10:11:29;7.93;;;4.07;;
22677;SDS011;26259;50.214;18.620;2022-07-21T10:13:55;12.07;;;4.70;;
22677;SDS011;26259;50.214;18.620;2022-07-21T10:16:20;9.15;;;4.55;;
22677;SDS011;26259;50.214;18.620;2022-07-21T10:18:58;7.85;;;4.25;;
22677;SDS011;26259;50.214;18.620;2022-07-21T10:23:59;13.52;;;5.10;;
22677;SDS011;26259;50.214;18.620;2022-07-21T10:26:24;5.88;;;4.30;;
22677;SDS011;26259;50.214;18.620;2022-07-21T10:28:50;8.05;;;3.60;;
22677;SDS011;26259;50.214;18.620;2022-07-21T10:31:17;5.75;;;3.85;;
22677;SDS011;26259;50.214;18.620;2022-07-21T10:47:04;8.82;;;4.72;;
22677;SDS011;26259;50.214;18.620;2022-07-21T10:57:44;15.35;;;4.68;;
22677;SDS011;26259;50.214;18.620;2022-07-21T11:00:33;13.27;;;4.20;;
22677;SDS011;26259;50.214;18.620;2022-07-21T11:03:01;10.68;;;4.45;;
22677;SDS011;26259;50.214;18.620;2022-07-21T11:08:30;11.45;;;4.03;;
22677;SDS011;26259;50.214;18.620;2022-07-21T11:11:06;9.27;;;4.28;;
22677;SDS011;26259;50.214;18.620;2022-07-21T11:19:41;6.05;;;4.35;;
22677;SDS011;26259;50.214;18.620;2022-07-21T11:22:20;8.10;;;3.55;;
22677;SDS011;26259;50.214;18.620;2022-07-21T11:24:56;6.30;;;3.85;;
22677;SDS011;26259;50.214;18.620;2022-07-21T11:27:23;9.00;;;3.72;;
22677;SDS011;26259;50.214;18.620;2022-07-21T11:29:51;9.80;;;4.35;;
22677;SDS011;26259;50.214;18.620;2022-07-21T11:32:18;8.75;;;4.28;;
22677;SDS011;26259;50.214;18.620;2022-07-21T11:37:12;12.27;;;4.28;;
22677;SDS011;26259;50.214;18.620;2022-07-21T11:39:42;6.65;;;3.70;;
22677;SDS011;26259;50.214;18.620;2022-07-21T11:42:09;9.25;;;3.65;;
22677;SDS011;26259;50.214;18.620;2022-07-21T11:44:38;9.45;;;3.40;;
22677;SDS011;26259;50.214;18.620;2022-07-21T11:47:05;11.13;;;4.68;;
22677;SDS011;26259;50.214;18.620;2022-07-21T11:49:32;9.43;;;3.85;;
22677;SDS011;26259;50.214;18.620;2022-07-21T11:51:59;12.18;;;4.32;;
22677;SDS011;26259;50.214;18.620;2022-07-21T11:57:09;9.20;;;3.90;;
22677;SDS011;26259;50.214;18.620;2022-07-21T11:59:36;7.50;;;3.67;;
22677;SDS011;26259;50.214;18.620;2022-07-21T12:04:54;13.32;;;4.00;;
22677;SDS011;26259;50.214;18.620;2022-07-21T12:07:31;11.27;;;3.80;;
22677;SDS011;26259;50.214;18.620;2022-07-21T12:10:03;5.70;;;3.42;;
22677;SDS011;26259;50.214;18.620;2022-07-21T12:12:38;10.85;;;3.72;;
22677;SDS011;26259;50.214;18.620;2022-07-21T12:17:46;7.30;;;3.88;;
22677;SDS011;26259;50.214;18.620;2022-07-21T12:22:54;12.70;;;3.40;;
22677;SDS011;26259;50.214;18.620;2022-07-21T12:25:31;6.53;;;3.35;;
22677;SDS011;26259;50.214;18.620;2022-07-21T12:27:58;8.15;;;3.28;;
22677;SDS011;26259;50.214;18.620;2022-07-21T12:30:35;8.50;;;3.67;;
22677;SDS011;26259;50.214;18.620;2022-07-21T12:33:10;7.65;;;3.90;;
22677;SDS011;26259;50.214;18.620;2022-07-21T12:35:44;8.38;;;3.80;;
22677;SDS011;26259;50.214;18.620;2022-07-21T12:38:21;12.13;;;3.72;;
22677;SDS011;26259;50.214;18.620;2022-07-21T12:40:48;5.90;;;3.35;;
22677;SDS011;26259;50.214;18.620;2022-07-21T12:43:20;12.85;;;3.80;;
22677;SDS011;26259;50.214;18.620;2022-07-21T12:45:51;8.57;;;3.88;;
22677;SDS011;26259;50.214;18.620;2022-07-21T12:48:18;6.28;;;3.33;;
22677;SDS011;26259;50.214;18.620;2022-07-21T12:51:02;7.90;;;3.72;;
22677;SDS011;26259;50.214;18.620;2022-07-21T12:53:36;6.57;;;3.22;;
22677;SDS011;26259;50.214;18.620;2022-07-21T12:56:07;8.43;;;3.65;;
22677;SDS011;26259;50.214;18.620;2022-07-21T12:58:33;7.85;;;3.30;;
22677;SDS011;26259;50.214;18.620;2022-07-21T13:00:59;8.40;;;3.30;;
22677;SDS011;26259;50.214;18.620;2022-07-21T13:03:27;6.65;;;3.20;;
22677;SDS011;26259;50.214;18.620;2022-07-21T13:05:53;6.28;;;3.30;;
22677;SDS011;26259;50.214;18.620;2022-07-21T13:08:19;7.72;;;3.45;;
22677;SDS011;26259;50.214;18.620;2022-07-21T13:10:45;16.60;;;3.50;;
22677;SDS011;26259;50.214;18.620;2022-07-21T13:13:10;8.05;;;3.67;;
22677;SDS011;26259;50.214;18.620;2022-07-21T13:15:36;7.20;;;3.25;;
22677;SDS011;26259;50.214;18.620;2022-07-21T13:18:02;6.05;;;4.03;;
22677;SDS011;26259;50.214;18.620;2022-07-21T13:20:27;13.25;;;4.00;;
22677;SDS011;26259;50.214;18.620;2022-07-21T13:22:53;11.88;;;3.92;;
22677;SDS011;26259;50.214;18.620;2022-07-21T13:25:19;11.57;;;3.45;;
22677;SDS011;26259;50.214;18.620;2022-07-21T13:27:45;8.60;;;3.65;;
22677;SDS011;26259;50.214;18.620;2022-07-21T13:30:10;8.23;;;4.03;;
22677;SDS011;26259;50.214;18.620;2022-07-21T13:32:37;7.05;;;4.30;;
22677;SDS011;26259;50.214;18.620;2022-07-21T13:35:06;9.60;;;3.85;;
22677;SDS011;26259;50.214;18.620;2022-07-21T13:37:32;8.80;;;4.03;;
22677;SDS011;26259;50.214;18.620;2022-07-21T13:39:58;9.43;;;4.03;;
22677;SDS011;26259;50.214;18.620;2022-07-21T13:42:24;10.77;;;3.72;;
22677;SDS011;26259;50.214;18.620;2022-07-21T13:44:49;9.38;;;3.90;;
22677;SDS011;26259;50.214;18.620;2022-07-21T13:47:15;11.88;;;4.50;;
22677;SDS011;26259;50.214;18.620;2022-07-21T13:49:41;11.95;;;4.30;;
22677;SDS011;26259;50.214;18.620;2022-07-21T13:52:06;10.85;;;3.88;;
22677;SDS011;26259;50.214;18.620;2022-07-21T13:54:32;7.90;;;3.42;;
22677;SDS011;26259;50.214;18.620;2022-07-21T13:56:59;6.13;;;3.75;;
22677;SDS011;26259;50.214;18.620;2022-07-21T13:59:25;5.15;;;3.38;;
22677;SDS011;26259;50.214;18.620;2022-07-21T14:01:51;11.45;;;4.13;;
22677;SDS011;26259;50.214;18.620;2022-07-21T14:04:17;11.38;;;3.42;;
22677;SDS011;26259;50.214;18.620;2022-07-21T14:06:43;8.05;;;3.20;;
22677;SDS011;26259;50.214;18.620;2022-07-21T14:09:12;8.23;;;3.67;;
22677;SDS011;26259;50.214;18.620;2022-07-21T14:11:38;9.18;;;4.60;;
22677;SDS011;26259;50.214;18.620;2022-07-21T14:14:04;6.72;;;3.38;;
22677;SDS011;26259;50.214;18.620;2022-07-21T14:16:30;12.65;;;4.82;;
22677;SDS011;26259;50.214;18.620;2022-07-21T14:18:55;8.45;;;4.00;;
22677;SDS011;26259;50.214;18.620;2022-07-21T14:21:21;14.38;;;4.22;;
22677;SDS011;26259;50.214;18.620;2022-07-21T14:23:47;15.73;;;3.67;;
22677;SDS011;26259;50.214;18.620;2022-07-21T14:26:33;15.30;;;4.53;;
22677;SDS011;26259;50.214;18.620;2022-07-21T14:28:59;11.02;;;4.05;;
22677;SDS011;26259;50.214;18.620;2022-07-21T14:31:24;10.45;;;3.72;;
22677;SDS011;26259;50.214;18.620;2022-07-21T14:33:50;11.77;;;4.38;;
22677;SDS011;26259;50.214;18.620;2022-07-21T14:36:16;8.45;;;3.67;;
22677;SDS011;26259;50.214;18.620;2022-07-21T14:38:41;15.38;;;4.63;;
22677;SDS011;26259;50.214;18.620;2022-07-21T14:41:07;9.80;;;3.70;;
22677;SDS011;26259;50.214;18.620;2022-07-21T14:43:33;8.20;;;3.70;;
22677;SDS011;26259;50.214;18.620;2022-07-21T14:45:58;12.90;;;4.65;;
22677;SDS011;26259;50.214;18.620;2022-07-21T14:48:24;13.73;;;4.78;;
22677;SDS011;26259;50.214;18.620;2022-07-21T14:50:50;12.43;;;4.25;;
22677;SDS011;26259;50.214;18.620;2022-07-21T14:53:16;11.52;;;3.63;;
22677;SDS011;26259;50.214;18.620;2022-07-21T14:55:42;11.57;;;3.85;;
22677;SDS011;26259;50.214;18.620;2022-07-21T14:58:07;5.72;;;3.00;;
22677;SDS011;26259;50.214;18.620;2022-07-21T15:00:33;13.68;;;3.60;;
22677;SDS011;26259;50.214;18.620;2022-07-21T15:02:59;10.25;;;3.20;;
22677;SDS011;26259;50.214;18.620;2022-07-21T15:05:24;10.23;;;3.30;;
22677;SDS011;26259;50.214;18.620;2022-07-21T15:07:50;16.50;;;3.60;;
22677;SDS011;26259;50.214;18.620;2022-07-21T15:10:16;10.10;;;2.90;;
22677;SDS011;26259;50.214;18.620;2022-07-21T15:12:42;9.88;;;2.97;;
22677;SDS011;26259;50.214;18.620;2022-07-21T15:15:07;11.60;;;3.75;;
22677;SDS011;26259;50.214;18.620;2022-07-21T15:17:33;9.93;;;3.42;;